sensor_id;sensor_type;location;lat;lon;timestamp;pressure;altitude;pressure_sealevel;temperature;humidity
47280;BME280;34064;44.942;0.008;2023-05-25T00:01:35;98906.63;;;19.18;42.40
47280;BME280;34064;44.942;0.008;2023-05-25T00:04:02;98905.81;;;19.18;42.48
47280;BME280;34064;44.942;0.008;2023-05-25T00:06:32;98907.13;;;19.14;42.30
47280;BME280;34064;44.942;0.008;2023-05-25T00:09:02;98902.44;;;19.08;42.50
47280;BME280;34064;44.942;0.008;2023-05-25T00:11:29;98910.53;;;19.08;42.40
47280;BME280;34064;44.942;0.008;2023-05-25T00:13:55;98904.16;;;19.00;42.47
47280;BME280;34064;44.942;0.008;2023-05-25T00:16:21;98900.47;;;18.93;42.75
47280;BME280;34064;44.942;0.008;2023-05-25T00:18:48;98911.34;;;18.92;42.75
47280;BME280;34064;44.942;0.008;2023-05-25T00:21:14;98914.72;;;18.85;42.75
47280;BME280;34064;44.942;0.008;2023-05-25T00:23:41;98922.28;;;18.82;42.83
47280;BME280;34064;44.942;0.008;2023-05-25T00:26:08;98926.66;;;18.75;43.02
47280;BME280;34064;44.942;0.008;2023-05-25T00:28:34;98922.94;;;18.76;42.72
47280;BME280;34064;44.942;0.008;2023-05-25T00:31:01;98925.31;;;18.70;42.57
47280;BME280;34064;44.942;0.008;2023-05-25T00:33:27;98932.38;;;18.71;42.49
47280;BME280;34064;44.942;0.008;2023-05-25T00:35:53;98930.69;;;18.70;42.52
47280;BME280;34064;44.942;0.008;2023-05-25T00:38:20;98926.97;;;18.63;42.46
47280;BME280;34064;44.942;0.008;2023-05-25T00:40:46;98931.00;;;18.59;42.62
47280;BME280;34064;44.942;0.008;2023-05-25T00:43:13;98924.94;;;18.57;42.62
47280;BME280;34064;44.942;0.008;2023-05-25T00:45:39;98938.22;;;18.50;42.81
47280;BME280;34064;44.942;0.008;2023-05-25T00:48:06;98936.88;;;18.54;42.52
47280;BME280;34064;44.942;0.008;2023-05-25T00:50:39;98931.00;;;18.51;42.48
47280;BME280;34064;44.942;0.008;2023-05-25T00:53:07;98937.56;;;18.48;42.68
47280;BME280;34064;44.942;0.008;2023-05-25T00:56:01;98933.31;;;18.37;42.55
47280;BME280;34064;44.942;0.008;2023-05-25T00:58:32;98939.72;;;18.36;42.78
47280;BME280;34064;44.942;0.008;2023-05-25T01:00:59;98945.09;;;18.36;42.46
47280;BME280;34064;44.942;0.008;2023-05-25T01:03:30;98936.84;;;18.30;42.63
47280;BME280;34064;44.942;0.008;2023-05-25T01:05:59;98947.75;;;18.28;42.71
47280;BME280;34064;44.942;0.008;2023-05-25T01:08:27;98945.53;;;18.23;42.51
47280;BME280;34064;44.942;0.008;2023-05-25T01:10:56;98932.97;;;18.24;42.53
47280;BME280;34064;44.942;0.008;2023-05-25T01:13:24;98935.97;;;18.21;42.61
47280;BME280;34064;44.942;0.008;2023-05-25T01:15:50;98943.69;;;18.16;42.59
47280;BME280;34064;44.942;0.008;2023-05-25T01:18:17;98940.81;;;18.17;42.51
47280;BME280;34064;44.942;0.008;2023-05-25T01:21:08;98943.00;;;18.14;42.53
47280;BME280;34064;44.942;0.008;2023-05-25T01:23:46;98946.34;;;18.07;42.69
47280;BME280;34064;44.942;0.008;2023-05-25T01:26:17;98942.13;;;18.05;42.87
47280;BME280;34064;44.942;0.008;2023-05-25T01:28:51;98941.09;;;17.98;42.82
47280;BME280;34064;44.942;0.008;2023-05-25T01:31:20;98937.16;;;17.92;42.91
47280;BME280;34064;44.942;0.008;2023-05-25T01:33:49;98937.84;;;17.94;42.83
47280;BME280;34064;44.942;0.008;2023-05-25T01:36:17;98936.34;;;17.91;42.71
47280;BME280;34064;44.942;0.008;2023-05-25T01:38:44;98932.47;;;17.86;43.08
47280;BME280;34064;44.942;0.008;2023-05-25T01:41:10;98928.38;;;17.82;43.34
47280;BME280;34064;44.942;0.008;2023-05-25T01:43:36;98925.19;;;17.78;43.21
47280;BME280;34064;44.942;0.008;2023-05-25T01:46:23;98928.06;;;17.76;43.16
47280;BME280;34064;44.942;0.008;2023-05-25T01:48:58;98930.69;;;17.68;43.25
47280;BME280;34064;44.942;0.008;2023-05-25T01:52:06;98935.38;;;17.66;43.30
47280;BME280;34064;44.942;0.008;2023-05-25T01:54:42;98935.88;;;17.61;43.28
47280;BME280;34064;44.942;0.008;2023-05-25T01:57:12;98939.84;;;17.57;43.63
47280;BME280;34064;44.942;0.008;2023-05-25T01:59:42;98934.47;;;17.57;43.55
47280;BME280;34064;44.942;0.008;2023-05-25T02:02:09;98940.34;;;17.53;43.71
47280;BME280;34064;44.942;0.008;2023-05-25T02:04:36;98941.50;;;17.50;43.51
47280;BME280;34064;44.942;0.008;2023-05-25T02:07:03;98945.88;;;17.51;43.64
47280;BME280;34064;44.942;0.008;2023-05-25T02:09:30;98938.69;;;17.52;43.26
47280;BME280;34064;44.942;0.008;2023-05-25T02:11:56;98934.31;;;17.51;43.52
47280;BME280;34064;44.942;0.008;2023-05-25T02:14:22;98934.63;;;17.48;43.50
47280;BME280;34064;44.942;0.008;2023-05-25T02:16:49;98932.22;;;17.44;43.61
47280;BME280;34064;44.942;0.008;2023-05-25T02:19:15;98938.25;;;17.38;43.42
47280;BME280;34064;44.942;0.008;2023-05-25T02:21:42;98941.56;;;17.32;43.33
47280;BME280;34064;44.942;0.008;2023-05-25T02:24:08;98946.94;;;17.32;43.54
47280;BME280;34064;44.942;0.008;2023-05-25T02:26:36;98950.94;;;17.28;43.20
47280;BME280;34064;44.942;0.008;2023-05-25T02:29:03;98951.22;;;17.25;43.28
47280;BME280;34064;44.942;0.008;2023-05-25T02:31:30;98943.03;;;17.26;43.23
47280;BME280;34064;44.942;0.008;2023-05-25T02:33:56;98945.88;;;17.25;43.06
47280;BME280;34064;44.942;0.008;2023-05-25T02:36:23;98952.09;;;17.25;43.17
47280;BME280;34064;44.942;0.008;2023-05-25T02:38:50;98948.88;;;17.22;43.04
47280;BME280;34064;44.942;0.008;2023-05-25T02:41:18;98954.25;;;17.22;43.22
47280;BME280;34064;44.942;0.008;2023-05-25T02:43:45;98941.81;;;17.21;43.02
47280;BME280;34064;44.942;0.008;2023-05-25T02:46:12;98935.25;;;17.15;43.28
47280;BME280;34064;44.942;0.008;2023-05-25T02:48:38;98955.84;;;17.14;43.22
47280;BME280;34064;44.942;0.008;2023-05-25T02:51:05;98946.66;;;17.17;43.07
47280;BME280;34064;44.942;0.008;2023-05-25T02:53:31;98948.28;;;17.10;43.35
47280;BME280;34064;44.942;0.008;2023-05-25T02:55:57;98936.41;;;17.12;43.02
47280;BME280;34064;44.942;0.008;2023-05-25T02:58:25;98926.59;;;17.03;43.60
47280;BME280;34064;44.942;0.008;2023-05-25T03:00:53;98943.69;;;17.02;43.24
47280;BME280;34064;44.942;0.008;2023-05-25T03:03:21;98941.31;;;16.99;43.60
47280;BME280;34064;44.942;0.008;2023-05-25T03:05:49;98935.97;;;16.99;43.28
47280;BME280;34064;44.942;0.008;2023-05-25T03:08:16;98937.13;;;16.96;43.38
47280;BME280;34064;44.942;0.008;2023-05-25T03:10:43;98936.03;;;16.89;43.72
47280;BME280;34064;44.942;0.008;2023-05-25T03:13:12;98938.72;;;16.89;43.67
47280;BME280;34064;44.942;0.008;2023-05-25T03:15:40;98928.50;;;16.93;43.52
47280;BME280;34064;44.942;0.008;2023-05-25T03:18:07;98936.84;;;16.90;43.66
47280;BME280;34064;44.942;0.008;2023-05-25T03:20:33;98929.97;;;16.87;43.70
47280;BME280;34064;44.942;0.008;2023-05-25T03:22:59;98926.22;;;16.80;43.92
47280;BME280;34064;44.942;0.008;2023-05-25T03:25:26;98921.63;;;16.72;43.93
47280;BME280;34064;44.942;0.008;2023-05-25T03:27:53;98917.53;;;16.68;44.37
47280;BME280;34064;44.942;0.008;2023-05-25T03:30:21;98918.94;;;16.72;44.29
47280;BME280;34064;44.942;0.008;2023-05-25T03:32:47;98920.63;;;16.73;44.06
47280;BME280;34064;44.942;0.008;2023-05-25T03:35:13;98926.28;;;16.70;44.13
47280;BME280;34064;44.942;0.008;2023-05-25T03:37:40;98928.97;;;16.70;44.25
47280;BME280;34064;44.942;0.008;2023-05-25T03:40:07;98928.59;;;16.65;44.39
47280;BME280;34064;44.942;0.008;2023-05-25T03:42:34;98929.44;;;16.65;44.39
47280;BME280;34064;44.942;0.008;2023-05-25T03:45:01;98931.22;;;16.57;44.63
47280;BME280;34064;44.942;0.008;2023-05-25T03:47:27;98935.19;;;16.52;44.88
47280;BME280;34064;44.942;0.008;2023-05-25T03:49:53;98935.81;;;16.46;44.89
47280;BME280;34064;44.942;0.008;2023-05-25T03:52:20;98940.06;;;16.39;44.88
47280;BME280;34064;44.942;0.008;2023-05-25T03:54:46;98945.75;;;16.36;45.28
47280;BME280;34064;44.942;0.008;2023-05-25T03:57:13;98947.91;;;16.32;45.33
47280;BME280;34064;44.942;0.008;2023-05-25T03:59:39;98940.69;;;16.33;45.31
47280;BME280;34064;44.942;0.008;2023-05-25T04:02:05;98939.84;;;16.32;45.52
47280;BME280;34064;44.942;0.008;2023-05-25T04:04:32;98940.69;;;16.33;45.21
47280;BME280;34064;44.942;0.008;2023-05-25T04:06:58;98930.94;;;16.32;45.31
47280;BME280;34064;44.942;0.008;2023-05-25T04:09:24;98937.47;;;16.29;45.40
47280;BME280;34064;44.942;0.008;2023-05-25T04:11:51;98936.63;;;16.29;45.40
47280;BME280;34064;44.942;0.008;2023-05-25T04:14:17;98941.13;;;16.28;45.72
47280;BME280;34064;44.942;0.008;2023-05-25T04:16:46;98937.63;;;16.28;45.58
47280;BME280;34064;44.942;0.008;2023-05-25T04:19:12;98940.75;;;16.23;45.80
47280;BME280;34064;44.942;0.008;2023-05-25T04:21:38;98941.59;;;16.24;45.92
47280;BME280;34064;44.942;0.008;2023-05-25T04:24:05;98935.41;;;16.23;45.95
47280;BME280;34064;44.942;0.008;2023-05-25T04:26:32;98943.28;;;16.25;46.02
47280;BME280;34064;44.942;0.008;2023-05-25T04:28:59;98936.94;;;16.26;46.05
47280;BME280;34064;44.942;0.008;2023-05-25T04:31:27;98940.44;;;16.26;46.19
47280;BME280;34064;44.942;0.008;2023-05-25T04:33:54;98941.28;;;16.27;45.77
47280;BME280;34064;44.942;0.008;2023-05-25T04:36:22;98930.69;;;16.25;46.14
47280;BME280;34064;44.942;0.008;2023-05-25T04:38:48;98942.44;;;16.24;46.28
47280;BME280;34064;44.942;0.008;2023-05-25T04:41:19;98937.63;;;16.28;46.31
47280;BME280;34064;44.942;0.008;2023-05-25T04:43:46;98931.56;;;16.26;46.34
47280;BME280;34064;44.942;0.008;2023-05-25T04:46:12;98931.56;;;16.26;46.49
47280;BME280;34064;44.942;0.008;2023-05-25T04:48:39;98936.75;;;16.27;46.82
47280;BME280;34064;44.942;0.008;2023-05-25T04:51:05;98931.94;;;16.31;46.40
47280;BME280;34064;44.942;0.008;2023-05-25T04:53:32;98932.25;;;16.28;46.51
47280;BME280;34064;44.942;0.008;2023-05-25T04:56:00;98931.66;;;16.34;46.57
47280;BME280;34064;44.942;0.008;2023-05-25T04:58:26;98937.00;;;16.34;46.52
47280;BME280;34064;44.942;0.008;2023-05-25T05:00:56;98935.03;;;16.36;46.41
47280;BME280;34064;44.942;0.008;2023-05-25T05:03:22;98925.66;;;16.40;46.38
47280;BME280;34064;44.942;0.008;2023-05-25T05:05:49;98926.38;;;16.42;46.68
47280;BME280;34064;44.942;0.008;2023-05-25T05:08:16;98932.88;;;16.40;46.66
47280;BME280;34064;44.942;0.008;2023-05-25T05:10:42;98937.50;;;16.47;46.67
47280;BME280;34064;44.942;0.008;2023-05-25T05:13:09;98935.47;;;16.49;46.54
47280;BME280;34064;44.942;0.008;2023-05-25T05:15:36;98940.84;;;16.49;46.89
47280;BME280;34064;44.942;0.008;2023-05-25T05:18:02;98940.53;;;16.52;46.86
47280;BME280;34064;44.942;0.008;2023-05-25T05:20:29;98945.28;;;16.59;46.90
47280;BME280;34064;44.942;0.008;2023-05-25T05:22:55;98946.44;;;16.56;46.71
47280;BME280;34064;44.942;0.008;2023-05-25T05:25:21;98948.66;;;16.61;47.10
47280;BME280;34064;44.942;0.008;2023-05-25T05:27:48;98946.38;;;16.66;46.88
47280;BME280;34064;44.942;0.008;2023-05-25T05:30:14;98944.69;;;16.65;46.90
47280;BME280;34064;44.942;0.008;2023-05-25T05:32:41;98940.09;;;16.75;46.77
47280;BME280;34064;44.942;0.008;2023-05-25T05:35:07;98936.97;;;16.80;46.84
47280;BME280;34064;44.942;0.008;2023-05-25T05:37:34;98942.22;;;16.90;46.53
47280;BME280;34064;44.942;0.008;2023-05-25T05:40:00;98935.59;;;16.94;46.61
47280;BME280;34064;44.942;0.008;2023-05-25T05:42:27;98934.78;;;17.02;46.36
47280;BME280;34064;44.942;0.008;2023-05-25T05:44:54;98925.44;;;17.06;46.28
47280;BME280;34064;44.942;0.008;2023-05-25T05:47:20;98921.59;;;17.08;46.42
47280;BME280;34064;44.942;0.008;2023-05-25T05:49:47;98916.97;;;17.19;46.16
47280;BME280;34064;44.942;0.008;2023-05-25T05:52:13;98922.03;;;17.22;46.40
47280;BME280;34064;44.942;0.008;2023-05-25T05:54:39;98927.75;;;17.27;46.41
47280;BME280;34064;44.942;0.008;2023-05-25T05:57:06;98916.72;;;17.30;46.36
47280;BME280;34064;44.942;0.008;2023-05-25T05:59:34;98922.44;;;17.35;46.58
47280;BME280;34064;44.942;0.008;2023-05-25T06:02:00;98913.94;;;17.48;46.51
47280;BME280;34064;44.942;0.008;2023-05-25T06:04:26;98916.16;;;17.53;46.44
47280;BME280;34064;44.942;0.008;2023-05-25T06:06:59;98907.84;;;17.64;45.91
47280;BME280;34064;44.942;0.008;2023-05-25T06:09:27;98895.78;;;17.68;46.05
47280;BME280;34064;44.942;0.008;2023-05-25T06:11:54;98905.84;;;17.66;46.23
47280;BME280;34064;44.942;0.008;2023-05-25T06:14:20;98896.50;;;17.78;45.89
47280;BME280;34064;44.942;0.008;2023-05-25T06:16:46;98900.88;;;17.80;45.98
47280;BME280;34064;44.942;0.008;2023-05-25T06:19:13;98893.81;;;17.78;45.71
47280;BME280;34064;44.942;0.008;2023-05-25T06:21:40;98896.31;;;17.80;45.96
47280;BME280;34064;44.942;0.008;2023-05-25T06:24:06;98897.16;;;17.81;46.37
47280;BME280;34064;44.942;0.008;2023-05-25T06:26:35;98894.66;;;17.87;46.33
47280;BME280;34064;44.942;0.008;2023-05-25T06:29:03;98894.69;;;17.96;46.43
47280;BME280;34064;44.942;0.008;2023-05-25T06:31:29;98881.84;;;18.07;45.88
47280;BME280;34064;44.942;0.008;2023-05-25T06:33:56;98881.50;;;18.11;46.21
47280;BME280;34064;44.942;0.008;2023-05-25T06:36:27;98868.94;;;18.19;45.84
47280;BME280;34064;44.942;0.008;2023-05-25T06:38:54;98873.63;;;18.26;45.86
47280;BME280;34064;44.942;0.008;2023-05-25T06:41:21;98877.84;;;18.28;46.00
47280;BME280;34064;44.942;0.008;2023-05-25T06:43:47;98868.63;;;18.39;45.77
47280;BME280;34064;44.942;0.008;2023-05-25T06:46:14;98871.13;;;18.40;45.95
47280;BME280;34064;44.942;0.008;2023-05-25T06:48:43;98867.44;;;18.42;46.06
47280;BME280;34064;44.942;0.008;2023-05-25T06:51:10;98861.25;;;18.49;45.75
47280;BME280;34064;44.942;0.008;2023-05-25T06:53:38;98866.94;;;18.54;45.73
47280;BME280;34064;44.942;0.008;2023-05-25T06:56:05;98869.13;;;18.59;45.80
47280;BME280;34064;44.942;0.008;2023-05-25T06:58:33;98857.72;;;18.65;45.68
47280;BME280;34064;44.942;0.008;2023-05-25T07:01:00;98864.59;;;18.68;45.73
47280;BME280;34064;44.942;0.008;2023-05-25T07:03:26;98862.41;;;18.55;45.68
47280;BME280;34064;44.942;0.008;2023-05-25T07:05:53;98855.00;;;18.57;45.78
47280;BME280;34064;44.942;0.008;2023-05-25T07:08:22;98862.41;;;18.55;45.87
47280;BME280;34064;44.942;0.008;2023-05-25T07:10:51;98856.19;;;18.54;45.90
47280;BME280;34064;44.942;0.008;2023-05-25T07:13:17;98856.34;;;18.61;46.18
47280;BME280;34064;44.942;0.008;2023-05-25T07:15:44;98858.38;;;18.67;45.98
47280;BME280;34064;44.942;0.008;2023-05-25T07:18:12;98851.81;;;18.78;45.80
47280;BME280;34064;44.942;0.008;2023-05-25T07:20:39;98844.06;;;18.83;45.55
47280;BME280;34064;44.942;0.008;2023-05-25T07:23:14;98844.25;;;18.98;45.79
47280;BME280;34064;44.942;0.008;2023-05-25T07:25:41;98836.13;;;19.15;45.62
47280;BME280;34064;44.942;0.008;2023-05-25T07:28:08;98832.91;;;19.20;45.53
47280;BME280;34064;44.942;0.008;2023-05-25T07:30:38;98832.91;;;19.28;45.04
47280;BME280;34064;44.942;0.008;2023-05-25T07:33:08;98828.63;;;19.42;44.88
47280;BME280;34064;44.942;0.008;2023-05-25T07:35:35;98823.25;;;19.50;44.98
47280;BME280;34064;44.942;0.008;2023-05-25T07:38:03;98827.25;;;19.54;45.06
47280;BME280;34064;44.942;0.008;2023-05-25T07:40:31;98814.06;;;19.68;44.38
47280;BME280;34064;44.942;0.008;2023-05-25T07:43:01;98806.63;;;19.70;44.74
47280;BME280;34064;44.942;0.008;2023-05-25T07:45:28;98806.59;;;19.78;44.55
47280;BME280;34064;44.942;0.008;2023-05-25T07:47:54;98800.69;;;19.83;44.35
47280;BME280;34064;44.942;0.008;2023-05-25T07:50:21;98798.44;;;19.94;44.78
47280;BME280;34064;44.942;0.008;2023-05-25T07:52:52;98799.41;;;20.02;44.76
47280;BME280;34064;44.942;0.008;2023-05-25T07:55:20;98800.19;;;20.10;44.27
47280;BME280;34064;44.942;0.008;2023-05-25T07:57:47;98798.94;;;20.21;44.19
47280;BME280;34064;44.942;0.008;2023-05-25T08:00:13;98794.69;;;20.27;43.73
47280;BME280;34064;44.942;0.008;2023-05-25T08:02:47;98798.50;;;20.33;43.95
47280;BME280;34064;44.942;0.008;2023-05-25T08:05:27;98797.13;;;20.37;43.90
47280;BME280;34064;44.942;0.008;2023-05-25T08:07:54;98804.84;;;20.40;43.81
47280;BME280;34064;44.942;0.008;2023-05-25T08:10:20;98808.50;;;20.47;43.49
47280;BME280;34064;44.942;0.008;2023-05-25T08:12:46;98803.69;;;20.57;43.48
47280;BME280;34064;44.942;0.008;2023-05-25T08:15:13;98801.31;;;20.63;43.54
47280;BME280;34064;44.942;0.008;2023-05-25T08:17:39;98809.69;;;20.68;43.57
47280;BME280;34064;44.942;0.008;2023-05-25T08:20:07;98804.88;;;20.78;43.00
47280;BME280;34064;44.942;0.008;2023-05-25T08:22:35;98813.25;;;20.83;42.66
47280;BME280;34064;44.942;0.008;2023-05-25T08:25:03;98799.03;;;20.90;42.18
47280;BME280;34064;44.942;0.008;2023-05-25T08:27:30;98809.38;;;20.86;42.34
47280;BME280;34064;44.942;0.008;2023-05-25T08:29:56;98804.44;;;20.90;42.48
47280;BME280;34064;44.942;0.008;2023-05-25T08:32:22;98795.16;;;21.07;41.95
47280;BME280;34064;44.942;0.008;2023-05-25T08:34:49;98796.72;;;21.16;41.93
47280;BME280;34064;44.942;0.008;2023-05-25T08:37:15;98792.66;;;21.21;41.34
47280;BME280;34064;44.942;0.008;2023-05-25T08:39:42;98806.22;;;21.12;41.52
47280;BME280;34064;44.942;0.008;2023-05-25T08:42:09;98808.91;;;20.97;42.03
47280;BME280;34064;44.942;0.008;2023-05-25T08:44:37;98814.25;;;21.06;41.50
47280;BME280;34064;44.942;0.008;2023-05-25T08:47:07;98808.66;;;21.07;41.64
47280;BME280;34064;44.942;0.008;2023-05-25T08:49:37;98800.19;;;21.10;41.97
47280;BME280;34064;44.942;0.008;2023-05-25T08:52:12;98796.16;;;21.36;41.46
47280;BME280;34064;44.942;0.008;2023-05-25T08:54:42;98775.66;;;21.57;40.69
47280;BME280;34064;44.942;0.008;2023-05-25T08:57:19;98783.75;;;21.72;40.24
47280;BME280;34064;44.942;0.008;2023-05-25T09:00:04;98778.81;;;21.75;39.80
47280;BME280;34064;44.942;0.008;2023-05-25T09:02:46;98793.88;;;21.85;39.83
47280;BME280;34064;44.942;0.008;2023-05-25T09:05:15;98791.00;;;21.71;39.58
47280;BME280;34064;44.942;0.008;2023-05-25T09:07:42;98786.34;;;21.80;39.47
47280;BME280;34064;44.942;0.008;2023-05-25T09:10:10;98790.53;;;21.83;38.63
47280;BME280;34064;44.942;0.008;2023-05-25T09:12:38;98786.41;;;21.87;37.57
47280;BME280;34064;44.942;0.008;2023-05-25T09:15:06;98779.28;;;22.01;36.69
47280;BME280;34064;44.942;0.008;2023-05-25T09:17:32;98776.56;;;22.22;35.45
47280;BME280;34064;44.942;0.008;2023-05-25T09:19:59;98767.44;;;22.45;35.07
47280;BME280;34064;44.942;0.008;2023-05-25T09:22:25;98763.75;;;22.53;33.69
47280;BME280;34064;44.942;0.008;2023-05-25T09:24:53;98769.03;;;22.39;33.82
47280;BME280;34064;44.942;0.008;2023-05-25T09:27:27;98789.41;;;22.13;33.24
47280;BME280;34064;44.942;0.008;2023-05-25T09:30:03;98805.22;;;21.95;33.60
47280;BME280;34064;44.942;0.008;2023-05-25T09:32:30;98796.19;;;22.09;32.68
47280;BME280;34064;44.942;0.008;2023-05-25T09:35:10;98793.13;;;22.12;32.55
47280;BME280;34064;44.942;0.008;2023-05-25T09:37:37;98784.75;;;22.29;32.40
47280;BME280;34064;44.942;0.008;2023-05-25T09:40:04;98791.44;;;22.33;32.15
47280;BME280;34064;44.942;0.008;2023-05-25T09:42:34;98792.38;;;22.40;32.07
47280;BME280;34064;44.942;0.008;2023-05-25T09:45:02;98789.00;;;22.38;31.25
47280;BME280;34064;44.942;0.008;2023-05-25T09:47:28;98803.22;;;22.25;32.04
47280;BME280;34064;44.942;0.008;2023-05-25T09:49:58;98793.09;;;22.34;32.50
47280;BME280;34064;44.942;0.008;2023-05-25T09:52:33;98792.72;;;22.37;32.48
47280;BME280;34064;44.942;0.008;2023-05-25T09:55:01;98790.56;;;22.48;31.86
47280;BME280;34064;44.942;0.008;2023-05-25T09:57:28;98788.88;;;22.47;31.72
47280;BME280;34064;44.942;0.008;2023-05-25T09:59:55;98770.06;;;22.60;31.92
47280;BME280;34064;44.942;0.008;2023-05-25T10:02:21;98761.41;;;22.71;31.05
47280;BME280;34064;44.942;0.008;2023-05-25T10:04:48;98761.13;;;22.66;31.27
47280;BME280;34064;44.942;0.008;2023-05-25T10:07:15;98736.94;;;22.93;30.55
47280;BME280;34064;44.942;0.008;2023-05-25T10:09:42;98727.88;;;23.08;29.54
47280;BME280;34064;44.942;0.008;2023-05-25T10:12:11;98731.59;;;23.06;29.63
47280;BME280;34064;44.942;0.008;2023-05-25T10:14:38;98731.38;;;23.36;29.87
47280;BME280;34064;44.942;0.008;2023-05-25T10:17:06;98737.38;;;23.39;29.21
47280;BME280;34064;44.942;0.008;2023-05-25T10:19:45;98736.34;;;23.40;29.22
47280;BME280;34064;44.942;0.008;2023-05-25T10:25:41;98714.81;;;23.87;29.24
47280;BME280;34064;44.942;0.008;2023-05-25T10:28:27;98721.75;;;24.03;28.53
47280;BME280;34064;44.942;0.008;2023-05-25T10:30:55;98716.53;;;24.08;28.53
47280;BME280;34064;44.942;0.008;2023-05-25T10:33:23;98713.41;;;24.24;28.64
47280;BME280;34064;44.942;0.008;2023-05-25T10:35:50;98700.66;;;24.38;27.94
47280;BME280;34064;44.942;0.008;2023-05-25T10:38:19;98722.56;;;24.23;27.90
47280;BME280;34064;44.942;0.008;2023-05-25T10:40:46;98721.97;;;24.08;28.30
47280;BME280;34064;44.942;0.008;2023-05-25T10:43:17;98710.28;;;24.21;27.82
47280;BME280;34064;44.942;0.008;2023-05-25T10:45:44;98702.53;;;24.24;28.66
47280;BME280;34064;44.942;0.008;2023-05-25T10:48:11;98729.88;;;24.09;28.81
47280;BME280;34064;44.942;0.008;2023-05-25T10:50:38;98731.50;;;23.90;28.62
47280;BME280;34064;44.942;0.008;2023-05-25T10:53:13;98718.81;;;23.97;28.70
47280;BME280;34064;44.942;0.008;2023-05-25T10:56:03;98714.03;;;24.13;28.61
47280;BME280;34064;44.942;0.008;2023-05-25T10:58:31;98694.00;;;24.41;28.85
47280;BME280;34064;44.942;0.008;2023-05-25T11:01:01;98691.25;;;24.54;27.75
47280;BME280;34064;44.942;0.008;2023-05-25T11:04:24;98696.25;;;24.64;28.49
47280;BME280;34064;44.942;0.008;2023-05-25T11:09:39;98672.81;;;24.90;27.29
47280;BME280;34064;44.942;0.008;2023-05-25T11:12:21;98676.09;;;25.12;27.94
47280;BME280;34064;44.942;0.008;2023-05-25T11:15:11;98670.19;;;25.22;27.45
47280;BME280;34064;44.942;0.008;2023-05-25T11:17:58;98678.38;;;25.15;27.90
47280;BME280;34064;44.942;0.008;2023-05-25T11:20:27;98685.88;;;25.20;27.61
47280;BME280;34064;44.942;0.008;2023-05-25T11:22:56;98686.78;;;25.07;27.33
47280;BME280;34064;44.942;0.008;2023-05-25T11:25:47;98701.09;;;24.69;27.12
47280;BME280;34064;44.942;0.008;2023-05-25T11:28:22;98723.22;;;24.32;27.97
47280;BME280;34064;44.942;0.008;2023-05-25T11:30:53;98738.03;;;24.16;28.33
47280;BME280;34064;44.942;0.008;2023-05-25T11:33:23;98743.22;;;23.97;28.17
47280;BME280;34064;44.942;0.008;2023-05-25T11:35:51;98746.09;;;23.89;28.43
47280;BME280;34064;44.942;0.008;2023-05-25T11:38:24;98759.84;;;23.81;29.01
47280;BME280;34064;44.942;0.008;2023-05-25T11:40:50;98753.97;;;23.71;29.41
47280;BME280;34064;44.942;0.008;2023-05-25T11:43:19;98752.50;;;23.61;29.22
47280;BME280;34064;44.942;0.008;2023-05-25T11:45:54;98763.13;;;23.56;29.46
47280;BME280;34064;44.942;0.008;2023-05-25T11:48:21;98758.94;;;23.53;29.93
47280;BME280;34064;44.942;0.008;2023-05-25T11:51:06;98757.31;;;23.66;30.20
47280;BME280;34064;44.942;0.008;2023-05-25T11:53:33;98750.84;;;23.67;29.49
47280;BME280;34064;44.942;0.008;2023-05-25T11:56:01;98746.50;;;23.73;28.86
47280;BME280;34064;44.942;0.008;2023-05-25T11:58:33;98729.06;;;24.09;29.06
47280;BME280;34064;44.942;0.008;2023-05-25T12:03:49;98683.47;;;24.91;27.84
47280;BME280;34064;44.942;0.008;2023-05-25T12:06:30;98669.34;;;25.21;27.95
47280;BME280;34064;44.942;0.008;2023-05-25T12:08:59;98659.59;;;25.52;27.57
47280;BME280;34064;44.942;0.008;2023-05-25T12:11:34;98660.22;;;25.54;26.88
47280;BME280;34064;44.942;0.008;2023-05-25T12:14:03;98663.84;;;25.74;27.08
47280;BME280;34064;44.942;0.008;2023-05-25T12:16:31;98658.72;;;25.91;27.03
47280;BME280;34064;44.942;0.008;2023-05-25T12:19:00;98660.66;;;25.83;27.19
47280;BME280;34064;44.942;0.008;2023-05-25T12:21:27;98647.94;;;26.09;27.10
47280;BME280;34064;44.942;0.008;2023-05-25T12:23:54;98632.84;;;26.32;27.04
47280;BME280;34064;44.942;0.008;2023-05-25T12:26:20;98626.53;;;26.57;26.61
47280;BME280;34064;44.942;0.008;2023-05-25T12:29:06;98633.66;;;26.58;25.67
47280;BME280;34064;44.942;0.008;2023-05-25T12:31:39;98630.53;;;26.54;26.34
47280;BME280;34064;44.942;0.008;2023-05-25T12:34:08;98616.16;;;26.66;25.74
47280;BME280;34064;44.942;0.008;2023-05-25T12:36:53;98618.06;;;26.84;25.92
47280;BME280;34064;44.942;0.008;2023-05-25T12:41:56;98601.34;;;27.29;25.93
47280;BME280;34064;44.942;0.008;2023-05-25T12:44:34;98589.09;;;27.50;25.23
47280;BME280;34064;44.942;0.008;2023-05-25T12:47:20;98589.09;;;27.50;24.69
47280;BME280;34064;44.942;0.008;2023-05-25T12:50:13;98621.31;;;26.92;25.56
47280;BME280;34064;44.942;0.008;2023-05-25T12:52:41;98648.34;;;26.31;26.01
47280;BME280;34064;44.942;0.008;2023-05-25T12:55:29;98662.38;;;26.03;26.57
47280;BME280;34064;44.942;0.008;2023-05-25T12:57:57;98658.09;;;26.21;26.16
47280;BME280;34064;44.942;0.008;2023-05-25T13:00:25;98648.78;;;26.28;26.72
47280;BME280;34064;44.942;0.008;2023-05-25T13:02:52;98642.91;;;26.31;26.15
47280;BME280;34064;44.942;0.008;2023-05-25T13:05:23;98655.44;;;26.07;26.31
47280;BME280;34064;44.942;0.008;2023-05-25T13:07:50;98646.25;;;26.34;26.33
47280;BME280;34064;44.942;0.008;2023-05-25T13:10:17;98641.03;;;26.51;26.55
47280;BME280;34064;44.942;0.008;2023-05-25T13:12:48;98656.75;;;26.30;26.35
47280;BME280;34064;44.942;0.008;2023-05-25T13:15:16;98662.53;;;26.15;26.24
47280;BME280;34064;44.942;0.008;2023-05-25T13:17:50;98656.94;;;26.03;26.97
47280;BME280;34064;44.942;0.008;2023-05-25T13:20:25;98633.47;;;26.53;27.32
47280;BME280;34064;44.942;0.008;2023-05-25T13:22:52;98617.22;;;27.02;27.55